createdAt,value
2023-04-18T00:00:56.745Z,8.40
2023-04-18T00:03:23.317Z,8.10
2023-04-18T00:05:50.072Z,10.20
2023-04-18T00:08:16.418Z,9.87
2023-04-18T00:10:42.724Z,10.67
2023-04-18T00:13:10.052Z,10.27
2023-04-18T00:15:36.975Z,8.67
2023-04-18T00:18:06.377Z,10.37
2023-04-18T00:20:32.939Z,9.03
2023-04-18T00:23:00.614Z,10.40
2023-04-18T00:25:27.105Z,12.33
2023-04-18T00:27:53.474Z,11.23
2023-04-18T00:30:19.878Z,10.97
2023-04-18T00:32:46.240Z,10.17
2023-04-18T00:35:12.659Z,12.23
2023-04-18T00:37:38.966Z,10.47
2023-04-18T00:40:06.072Z,10.50
2023-04-18T00:42:33.190Z,8.90
2023-04-18T00:44:59.604Z,9.90
2023-04-18T00:47:26.045Z,10.77
2023-04-18T00:49:52.758Z,9.97
2023-04-18T00:52:19.865Z,10.30
2023-04-18T00:54:47.183Z,9.17
2023-04-18T00:57:13.627Z,10.43
2023-04-18T00:59:40.917Z,11.07
2023-04-18T01:02:07.339Z,11.40
2023-04-18T01:04:33.843Z,10.83
2023-04-18T01:07:02.071Z,9.03
2023-04-18T01:09:28.625Z,11.00
2023-04-18T01:11:55.018Z,12.80
2023-04-18T01:14:21.676Z,10.13
2023-04-18T01:16:48.447Z,12.60
2023-04-18T01:19:17.218Z,9.93
2023-04-18T01:21:43.792Z,13.27
2023-04-18T01:24:12.485Z,12.27
2023-04-18T01:26:39.297Z,11.37
2023-04-18T01:29:05.773Z,12.87
2023-04-18T01:31:36.442Z,9.97
2023-04-18T01:34:04.000Z,11.60
2023-04-18T01:36:31.728Z,12.43
2023-04-18T01:38:59.042Z,9.77
2023-04-18T01:41:25.440Z,10.60
2023-04-18T01:43:51.731Z,11.90
2023-04-18T01:46:18.059Z,14.10
2023-04-18T01:48:44.426Z,10.83
2023-04-18T01:51:10.765Z,10.03
2023-04-18T01:53:37.086Z,13.53
2023-04-18T01:56:03.550Z,12.47
2023-04-18T01:58:29.928Z,11.13
2023-04-18T02:00:57.755Z,11.57
2023-04-18T02:03:24.831Z,12.90
2023-04-18T02:05:51.731Z,11.33
2023-04-18T02:08:18.309Z,11.73
2023-04-18T02:10:44.929Z,14.97
2023-04-18T02:13:11.403Z,10.73
2023-04-18T02:15:37.786Z,11.07
2023-04-18T02:18:04.205Z,13.00
2023-04-18T02:20:31.656Z,10.70
2023-04-18T02:22:58.802Z,12.30
2023-04-18T02:25:27.398Z,14.23
2023-04-18T02:27:54.673Z,12.37
2023-04-18T02:30:21.349Z,13.17
2023-04-18T02:32:51.851Z,13.47
2023-04-18T02:35:19.494Z,14.50
2023-04-18T02:37:45.879Z,14.03
2023-04-18T02:40:14.677Z,13.47
2023-04-18T02:42:41.059Z,13.33
2023-04-18T02:45:08.579Z,14.47
2023-04-18T02:47:43.775Z,15.10
2023-04-18T02:50:17.987Z,15.47
2023-04-18T02:52:44.360Z,16.70
2023-04-18T02:55:10.929Z,14.57
2023-04-18T02:57:37.238Z,14.30
2023-04-18T03:00:04.562Z,14.23
2023-04-18T03:02:31.047Z,15.50
2023-04-18T03:04:57.458Z,15.93
2023-04-18T03:07:23.900Z,17.70
2023-04-18T03:09:50.265Z,14.33
2023-04-18T03:12:16.652Z,15.20
2023-04-18T03:14:44.388Z,18.13
2023-04-18T03:17:10.982Z,18.20
2023-04-18T03:19:39.582Z,15.50
2023-04-18T03:22:05.949Z,18.40
2023-04-18T03:24:32.270Z,17.43
2023-04-18T03:27:00.470Z,15.93
2023-04-18T03:29:26.858Z,14.63
2023-04-18T03:31:53.273Z,19.60
2023-04-18T03:34:19.586Z,17.67
2023-04-18T03:36:47.263Z,17.77
2023-04-18T03:39:14.405Z,17.13
2023-04-18T03:41:40.697Z,17.50
2023-04-18T03:44:07.022Z,15.70
2023-04-18T03:46:33.497Z,17.00
2023-04-18T03:48:59.826Z,16.93
2023-04-18T03:51:26.212Z,15.87
2023-04-18T03:53:52.504Z,16.57
2023-04-18T03:56:18.817Z,13.07
2023-04-18T03:58:45.117Z,16.00
2023-04-18T04:01:12.694Z,15.47
2023-04-18T04:03:39.155Z,15.93
2023-04-18T04:06:06.414Z,16.63
2023-04-18T04:08:32.728Z,17.73
2023-04-18T04:10:59.083Z,17.60
2023-04-18T04:13:25.424Z,14.63
2023-04-18T04:15:52.102Z,17.33
2023-04-18T04:18:18.440Z,15.67
2023-04-18T04:20:47.571Z,17.23
2023-04-18T04:23:13.945Z,19.23
2023-04-18T04:25:40.343Z,20.67
2023-04-18T04:28:06.812Z,17.50
2023-04-18T04:30:33.565Z,16.80
2023-04-18T04:33:01.545Z,21.07
2023-04-18T04:35:28.286Z,18.70
2023-04-18T04:37:54.610Z,17.40
2023-04-18T04:40:22.664Z,18.80
2023-04-18T04:42:49.095Z,19.00
2023-04-18T04:45:15.412Z,21.57
2023-04-18T04:47:41.800Z,21.63
2023-04-18T04:50:14.432Z,17.67
2023-04-18T04:52:41.462Z,18.90
2023-04-18T04:55:08.134Z,22.30
2023-04-18T04:57:34.506Z,18.17
2023-04-18T05:00:00.854Z,19.77
2023-04-18T05:02:27.273Z,18.10
2023-04-18T05:04:53.604Z,17.83
2023-04-18T05:07:19.985Z,19.80
2023-04-18T05:09:46.359Z,17.77
2023-04-18T05:12:12.717Z,16.17
2023-04-18T05:14:39.074Z,22.43
2023-04-18T05:17:05.634Z,19.17
2023-04-18T05:19:31.978Z,22.83
2023-04-18T05:21:58.341Z,22.07
2023-04-18T05:24:24.687Z,21.07
2023-04-18T05:26:51.415Z,17.67
2023-04-18T05:29:17.712Z,17.93
2023-04-18T05:31:44.157Z,17.80
2023-04-18T05:34:10.444Z,21.50
2023-04-18T05:36:36.951Z,18.10
2023-04-18T05:39:03.434Z,14.83
2023-04-18T05:41:29.802Z,14.80
2023-04-18T05:44:04.839Z,14.93
2023-04-18T05:46:32.963Z,16.40
2023-04-18T05:48:59.398Z,15.53
2023-04-18T05:51:26.651Z,13.33
2023-04-18T05:53:52.996Z,14.83
2023-04-18T05:56:19.404Z,15.87
2023-04-18T05:58:47.439Z,13.20
2023-04-18T06:01:18.786Z,14.37
2023-04-18T06:03:45.413Z,14.20
2023-04-18T06:06:11.917Z,13.60
2023-04-18T06:08:39.697Z,14.90
2023-04-18T06:11:06.201Z,14.63
2023-04-18T06:13:32.546Z,13.97
2023-04-18T06:16:00.535Z,13.87
2023-04-18T06:18:26.901Z,12.63
2023-04-18T06:20:53.239Z,16.87
2023-04-18T06:23:19.610Z,13.07
2023-04-18T06:25:46.181Z,14.40
2023-04-18T06:28:12.518Z,11.87
2023-04-18T06:30:38.848Z,14.50
2023-04-18T06:33:05.296Z,14.73
2023-04-18T06:35:31.813Z,11.77
2023-04-18T06:37:58.152Z,13.37
2023-04-18T06:40:24.531Z,13.20
2023-04-18T06:42:50.893Z,12.37
2023-04-18T06:45:17.705Z,13.77
2023-04-18T06:47:44.470Z,15.47
2023-04-18T06:50:11.299Z,13.97
2023-04-18T06:52:40.555Z,13.43
2023-04-18T06:55:09.036Z,12.53
2023-04-18T06:57:35.436Z,13.97
2023-04-18T07:00:01.852Z,11.70
2023-04-18T07:02:28.462Z,13.87
2023-04-18T07:04:54.869Z,15.43
2023-04-18T07:07:21.304Z,12.10
2023-04-18T07:09:48.880Z,15.40
2023-04-18T07:12:16.028Z,11.40
2023-04-18T07:14:42.352Z,14.67
2023-04-18T07:17:08.736Z,14.67
2023-04-18T07:19:35.056Z,14.27
2023-04-18T07:22:01.372Z,13.70
2023-04-18T07:24:27.693Z,16.67
2023-04-18T07:26:55.155Z,12.53
2023-04-18T07:29:21.683Z,15.47
2023-04-18T07:31:48.532Z,17.50
2023-04-18T07:34:15.358Z,15.10
2023-04-18T07:36:42.137Z,15.47
2023-04-18T07:39:08.624Z,16.60
2023-04-18T07:41:35.352Z,15.07
2023-04-18T07:44:02.588Z,13.17
2023-04-18T07:46:29.138Z,13.87
2023-04-18T07:48:55.580Z,17.23
2023-04-18T07:51:22.101Z,12.67
2023-04-18T07:53:48.460Z,13.50
2023-04-18T07:56:14.960Z,14.50
2023-04-18T07:58:41.298Z,14.40
2023-04-18T08:01:08.953Z,13.63
2023-04-18T08:03:37.084Z,12.47
2023-04-18T08:06:03.759Z,11.20
2023-04-18T08:08:30.115Z,12.23
2023-04-18T08:10:59.032Z,11.67
2023-04-18T08:13:25.472Z,12.30
2023-04-18T08:15:51.931Z,10.90
2023-04-18T08:18:18.289Z,12.73
2023-04-18T08:20:44.583Z,13.93
2023-04-18T08:23:13.061Z,12.93
2023-04-18T08:25:39.833Z,13.27
2023-04-18T08:28:06.449Z,11.27
2023-04-18T08:30:32.862Z,12.97
2023-04-18T08:33:00.350Z,10.90
2023-04-18T08:35:26.966Z,11.63
2023-04-18T08:37:53.301Z,13.00
2023-04-18T08:40:20.053Z,11.97
2023-04-18T08:42:46.380Z,12.03
2023-04-18T08:45:14.085Z,12.43
2023-04-18T08:47:41.643Z,11.57
2023-04-18T08:50:09.652Z,11.67
2023-04-18T08:52:37.759Z,10.77
2023-04-18T08:55:04.479Z,12.33
2023-04-18T08:57:31.419Z,10.93
2023-04-18T09:00:00.661Z,11.90
2023-04-18T09:02:42.293Z,10.17
2023-04-18T09:05:14.126Z,13.27
2023-04-18T09:07:41.401Z,12.20
2023-04-18T09:10:09.771Z,11.03
2023-04-18T09:12:49.824Z,14.17
2023-04-18T09:15:20.097Z,10.47
2023-04-18T09:17:53.372Z,13.47
2023-04-18T09:20:35.525Z,15.67
2023-04-18T09:23:04.236Z,11.33
2023-04-18T09:25:40.821Z,11.90
2023-04-18T09:28:32.967Z,11.53
2023-04-18T09:31:15.105Z,10.77
2023-04-18T09:33:53.944Z,9.73
2023-04-18T09:36:22.486Z,11.53
2023-04-18T09:38:52.519Z,11.43
2023-04-18T09:41:22.401Z,10.63
2023-04-18T09:43:49.258Z,9.53
2023-04-18T09:46:17.483Z,10.93
2023-04-18T09:48:44.003Z,7.93
2023-04-18T09:51:14.425Z,9.37
2023-04-18T09:53:44.464Z,8.10
2023-04-18T09:56:25.258Z,9.07
2023-04-18T09:58:56.759Z,8.13
2023-04-18T10:01:28.303Z,8.33
2023-04-18T10:03:57.055Z,9.03
2023-04-18T10:06:27.216Z,10.33
2023-04-18T10:08:54.161Z,8.70
2023-04-18T10:11:20.856Z,8.47
2023-04-18T10:13:48.742Z,9.83
2023-04-18T10:16:16.795Z,9.40
2023-04-18T10:18:43.306Z,8.53
2023-04-18T10:21:09.717Z,7.90
2023-04-18T10:23:38.387Z,9.17
2023-04-18T10:26:14.820Z,11.43
2023-04-18T10:28:57.871Z,11.10
2023-04-18T10:31:27.973Z,10.30
2023-04-18T10:36:28.080Z,10.27
2023-04-18T10:39:03.983Z,10.03
2023-04-18T10:41:32.438Z,10.90
2023-04-18T10:44:17.327Z,10.73
2023-04-18T10:46:52.684Z,10.10
2023-04-18T10:49:26.307Z,12.23
2023-04-18T10:51:55.613Z,9.63
2023-04-18T10:54:57.082Z,9.30
2023-04-18T10:57:25.340Z,8.90
2023-04-18T10:59:52.471Z,11.23
2023-04-18T11:02:30.299Z,10.07
2023-04-18T11:04:59.045Z,10.37
2023-04-18T11:07:41.785Z,14.47
2023-04-18T11:10:09.660Z,9.27
2023-04-18T11:12:38.122Z,8.87
2023-04-18T11:15:36.712Z,8.80
2023-04-18T11:18:04.754Z,8.43
2023-04-18T11:20:39.068Z,8.33
2023-04-18T11:23:16.006Z,8.97
2023-04-18T11:25:44.714Z,8.07
2023-04-18T11:28:13.873Z,8.03
2023-04-18T11:30:41.140Z,7.23
2023-04-18T11:33:11.797Z,8.30
2023-04-18T11:35:39.640Z,8.33
2023-04-18T11:38:07.377Z,10.90
2023-04-18T11:40:34.164Z,10.97
2023-04-18T11:43:02.299Z,11.07
2023-04-18T11:45:28.951Z,14.70
2023-04-18T11:47:58.172Z,7.87
2023-04-18T11:50:24.874Z,9.90
2023-04-18T11:52:53.637Z,6.67
2023-04-18T11:55:24.958Z,7.90
2023-04-18T11:57:55.990Z,9.67
2023-04-18T12:00:39.821Z,8.13
2023-04-18T12:03:11.862Z,6.90
2023-04-18T12:05:40.070Z,6.67
2023-04-18T12:08:17.232Z,7.97
2023-04-18T12:10:48.445Z,7.80
2023-04-18T12:13:15.067Z,7.33
2023-04-18T12:15:44.778Z,6.83
2023-04-18T12:18:13.937Z,6.57
2023-04-18T12:20:52.576Z,14.30
2023-04-18T12:23:29.806Z,9.23
2023-04-18T12:26:01.358Z,9.70
2023-04-18T12:28:28.235Z,6.67
2023-04-18T12:30:55.173Z,7.97
2023-04-18T12:33:21.634Z,10.03
2023-04-18T12:35:49.532Z,5.37
2023-04-18T12:38:20.680Z,6.77
2023-04-18T12:40:47.017Z,7.20
2023-04-18T12:43:13.325Z,7.00
2023-04-18T12:45:39.686Z,5.77
2023-04-18T12:48:06.704Z,5.23
2023-04-18T12:50:33.153Z,6.20
2023-04-18T12:53:00.819Z,4.87
2023-04-18T12:55:28.285Z,5.70
2023-04-18T12:57:55.385Z,9.20
2023-04-18T13:00:23.571Z,7.43
2023-04-18T13:02:50.731Z,4.73
2023-04-18T13:05:20.270Z,5.60
2023-04-18T13:07:48.910Z,6.07
2023-04-18T13:10:20.448Z,5.07
2023-04-18T13:12:48.360Z,5.57
2023-04-18T13:15:16.112Z,6.93
2023-04-18T13:17:43.456Z,4.97
2023-04-18T13:20:12.351Z,7.10
2023-04-18T13:22:42.950Z,5.93
2023-04-18T13:25:10.609Z,8.90
2023-04-18T13:27:39.627Z,5.90
2023-04-18T13:30:11.369Z,7.57
2023-04-18T13:32:39.046Z,10.77
2023-04-18T13:35:08.143Z,8.37
2023-04-18T13:37:34.640Z,5.60
2023-04-18T13:40:01.036Z,6.83
2023-04-18T13:42:27.408Z,5.57
2023-04-18T13:44:54.359Z,7.77
2023-04-18T13:47:20.784Z,6.90
2023-04-18T13:49:47.104Z,5.40
2023-04-18T13:52:13.431Z,6.27
2023-04-18T13:54:41.190Z,6.50
2023-04-18T13:57:11.446Z,5.43
2023-04-18T13:59:40.876Z,4.90
2023-04-18T14:02:08.706Z,5.17
2023-04-18T14:04:35.680Z,6.43
2023-04-18T14:07:03.717Z,7.17
2023-04-18T14:09:30.224Z,5.80
2023-04-18T14:11:58.146Z,5.63
2023-04-18T14:14:24.645Z,5.23
2023-04-18T14:16:51.098Z,9.80
2023-04-18T14:19:17.890Z,7.47
2023-04-18T14:21:46.572Z,5.93
2023-04-18T14:24:13.041Z,6.23
2023-04-18T14:26:39.576Z,5.43
2023-04-18T14:29:06.076Z,5.40
2023-04-18T14:31:32.508Z,6.37
2023-04-18T14:33:58.840Z,7.07
2023-04-18T14:36:26.171Z,6.37
2023-04-18T14:38:52.487Z,8.10
2023-04-18T14:41:18.873Z,5.70
2023-04-18T14:43:45.259Z,7.60
2023-04-18T14:46:13.262Z,8.17
2023-04-18T14:48:39.644Z,10.87
2023-04-18T14:51:05.999Z,6.37
2023-04-18T14:53:32.370Z,7.20
2023-04-18T14:55:58.701Z,7.10
2023-04-18T14:58:25.423Z,7.30
2023-04-18T15:00:51.788Z,7.70
2023-04-18T15:03:18.302Z,8.30
2023-04-18T15:05:46.484Z,8.07
2023-04-18T15:08:14.418Z,7.87
2023-04-18T15:10:42.200Z,8.77
2023-04-18T15:13:09.605Z,8.27
2023-04-18T15:15:36.450Z,8.13
2023-04-18T15:18:02.896Z,8.70
2023-04-18T15:20:29.616Z,9.30
2023-04-18T15:22:56.722Z,10.63
2023-04-18T15:25:23.418Z,9.93
2023-04-18T15:27:49.801Z,10.07
2023-04-18T15:30:16.332Z,10.63
2023-04-18T15:32:42.795Z,9.37
2023-04-18T15:35:10.365Z,10.37
2023-04-18T15:37:36.870Z,10.87
2023-04-18T15:40:06.594Z,11.47
2023-04-18T15:42:33.646Z,12.40
2023-04-18T15:44:59.990Z,10.47
2023-04-18T15:47:27.014Z,12.50
2023-04-18T15:49:53.535Z,11.30
2023-04-18T15:52:19.970Z,11.60
2023-04-18T15:54:46.412Z,9.70
2023-04-18T15:57:12.861Z,12.47
2023-04-18T15:59:39.202Z,10.07
2023-04-18T16:02:07.045Z,8.67
2023-04-18T16:04:33.548Z,12.07
2023-04-18T16:07:00.304Z,11.97
2023-04-18T16:09:26.935Z,10.50
2023-04-18T16:11:53.371Z,9.27
2023-04-18T16:14:19.707Z,8.53
2023-04-18T16:16:46.152Z,8.87
2023-04-18T16:19:12.455Z,9.73
2023-04-18T16:21:38.830Z,9.63
2023-04-18T16:24:05.602Z,8.90
2023-04-18T16:26:32.029Z,12.63
2023-04-18T16:28:58.356Z,10.20
2023-04-18T16:31:24.861Z,8.73
2023-04-18T16:33:52.579Z,9.83
2023-04-18T16:36:19.385Z,8.63
2023-04-18T16:38:45.928Z,10.13
2023-04-18T16:41:12.222Z,8.23
2023-04-18T16:43:38.624Z,8.80
2023-04-18T16:46:05.580Z,10.30
2023-04-18T16:48:32.065Z,12.13
2023-04-18T16:50:58.437Z,11.83
2023-04-18T16:53:24.869Z,9.77
2023-04-18T16:55:52.136Z,11.77
2023-04-18T16:58:19.116Z,8.80
2023-04-18T17:00:45.493Z,9.97
2023-04-18T17:03:11.887Z,9.67
2023-04-18T17:05:39.259Z,10.10
2023-04-18T17:08:06.778Z,8.73
2023-04-18T17:10:33.815Z,9.93
2023-04-18T17:13:02.623Z,7.93
2023-04-18T17:15:29.176Z,8.17
2023-04-18T17:17:56.348Z,8.43
2023-04-18T17:20:23.581Z,9.57
2023-04-18T17:22:49.929Z,8.57
2023-04-18T17:25:16.690Z,8.23
2023-04-18T17:27:43.094Z,9.10
2023-04-18T17:30:10.139Z,8.77
2023-04-18T17:32:36.835Z,9.40
2023-04-18T17:35:06.109Z,7.70
2023-04-18T17:37:32.483Z,8.83
2023-04-18T17:40:00.267Z,7.17
2023-04-18T17:42:26.646Z,8.53
2023-04-18T17:44:52.970Z,7.13
2023-04-18T17:47:19.270Z,7.20
2023-04-18T17:49:45.926Z,7.03
2023-04-18T17:52:12.205Z,7.33
2023-04-18T17:54:38.600Z,7.43
2023-04-18T17:57:04.934Z,8.37
2023-04-18T17:59:37.424Z,8.37
2023-04-18T18:02:05.014Z,8.03
2023-04-18T18:04:31.716Z,9.87
2023-04-18T18:06:58.619Z,10.87
2023-04-18T18:09:25.041Z,9.10
2023-04-18T18:11:52.413Z,12.10
2023-04-18T18:14:20.249Z,9.63
2023-04-18T18:16:46.877Z,9.37
2023-04-18T18:19:14.888Z,9.77
2023-04-18T18:21:41.374Z,8.57
2023-04-18T18:24:07.915Z,10.23
2023-04-18T18:26:36.101Z,11.73
2023-04-18T18:29:09.025Z,9.70
2023-04-18T18:31:36.108Z,9.40
2023-04-18T18:34:02.746Z,8.97
2023-04-18T18:36:29.182Z,10.03
2023-04-18T18:38:57.795Z,9.07
2023-04-18T18:41:24.415Z,9.63
2023-04-18T18:43:51.230Z,8.63
2023-04-18T18:46:18.021Z,11.93
2023-04-18T18:48:44.469Z,11.47
2023-04-18T18:51:11.451Z,9.27
2023-04-18T18:53:40.143Z,10.17
2023-04-18T18:56:08.528Z,9.80
2023-04-18T18:58:35.638Z,9.90
2023-04-18T19:01:03.237Z,11.20
2023-04-18T19:03:29.799Z,10.53
2023-04-18T19:05:56.574Z,10.53
2023-04-18T19:08:23.005Z,12.63
2023-04-18T19:10:50.447Z,12.03
2023-04-18T19:13:16.831Z,11.07
2023-04-18T19:15:43.216Z,9.13
2023-04-18T19:18:09.686Z,10.37
2023-04-18T19:20:38.698Z,9.40
2023-04-18T19:23:05.134Z,9.03
2023-04-18T19:25:31.534Z,10.40
2023-04-18T19:27:57.825Z,11.00
2023-04-18T19:30:24.957Z,8.93
2023-04-18T19:32:51.561Z,10.70
2023-04-18T19:35:17.929Z,10.07
2023-04-18T19:37:44.276Z,9.30
2023-04-18T19:40:11.196Z,10.27
2023-04-18T19:42:37.543Z,10.17
2023-04-18T19:45:05.302Z,10.80
2023-04-18T19:47:33.701Z,12.00
2023-04-18T19:50:01.020Z,10.63
2023-04-18T19:52:27.344Z,10.27
2023-04-18T19:54:53.940Z,9.30
2023-04-18T19:57:20.240Z,10.47
2023-04-18T19:59:46.604Z,13.60
2023-04-18T20:02:12.931Z,11.30
2023-04-18T20:04:42.136Z,10.00
2023-04-18T20:07:08.655Z,10.40
2023-04-18T20:09:35.005Z,13.10
2023-04-18T20:12:01.811Z,10.63
2023-04-18T20:14:29.172Z,11.03
2023-04-18T20:16:56.521Z,10.90
2023-04-18T20:19:25.720Z,10.70
2023-04-18T20:21:52.524Z,12.07
2023-04-18T20:24:20.937Z,11.43
2023-04-18T20:26:47.680Z,11.27
2023-04-18T20:29:14.197Z,12.63
2023-04-18T20:31:42.273Z,10.63
2023-04-18T20:34:09.810Z,11.00
2023-04-18T20:36:41.268Z,11.90
2023-04-18T20:39:12.513Z,11.40
2023-04-18T20:41:46.335Z,9.57
2023-04-18T20:44:13.691Z,10.77
2023-04-18T20:46:40.879Z,11.73
2023-04-18T20:49:08.145Z,10.67
2023-04-18T20:51:35.686Z,11.47
2023-04-18T20:54:02.023Z,11.27
2023-04-18T20:56:28.449Z,11.17
2023-04-18T20:58:54.911Z,10.33
2023-04-18T21:01:22.434Z,10.40
2023-04-18T21:03:49.245Z,10.20
2023-04-18T21:06:15.821Z,10.13
2023-04-18T21:08:42.109Z,11.10
2023-04-18T21:11:08.490Z,9.63
2023-04-18T21:13:34.950Z,11.07
2023-04-18T21:16:03.394Z,11.10
2023-04-18T21:18:30.054Z,10.07
2023-04-18T21:20:56.361Z,9.97
2023-04-18T21:23:25.604Z,9.80
2023-04-18T21:25:51.889Z,10.87
2023-04-18T21:28:21.440Z,9.53
2023-04-18T21:30:47.953Z,9.70
2023-04-18T21:33:14.745Z,8.93
2023-04-18T21:35:41.107Z,8.93
2023-04-18T21:38:07.428Z,8.57
2023-04-18T21:40:33.780Z,12.40
2023-04-18T21:43:00.311Z,8.57
2023-04-18T21:45:26.765Z,10.97
2023-04-18T21:47:53.237Z,9.27
2023-04-18T21:50:20.232Z,8.33
2023-04-18T21:52:46.611Z,8.90
2023-04-18T21:55:13.056Z,10.47
2023-04-18T21:57:39.358Z,7.87
2023-04-18T22:00:09.270Z,9.33
2023-04-18T22:02:36.752Z,11.10
2023-04-18T22:05:03.240Z,10.67
2023-04-18T22:07:30.881Z,8.60
2023-04-18T22:09:59.558Z,9.03
2023-04-18T22:12:26.279Z,7.67
2023-04-18T22:14:52.823Z,8.67
2023-04-18T22:17:19.239Z,9.40
2023-04-18T22:19:47.098Z,9.23
2023-04-18T22:22:13.435Z,7.57
2023-04-18T22:24:39.732Z,7.77
2023-04-18T22:27:06.060Z,7.80
2023-04-18T22:29:32.429Z,7.67
2023-04-18T22:31:58.776Z,7.13
2023-04-18T22:34:25.106Z,8.10
2023-04-18T22:36:51.477Z,8.20
2023-04-18T22:39:17.817Z,7.00
2023-04-18T22:41:44.143Z,7.80
2023-04-18T22:44:10.520Z,8.27
2023-04-18T22:46:38.242Z,8.27
2023-04-18T22:49:05.372Z,7.50
2023-04-18T22:51:31.811Z,7.47
2023-04-18T22:53:58.160Z,6.63
2023-04-18T22:56:24.469Z,6.90
2023-04-18T22:58:50.871Z,6.47
2023-04-18T23:01:17.391Z,6.10
2023-04-18T23:03:43.962Z,7.13
2023-04-18T23:06:10.945Z,7.00
2023-04-18T23:08:39.370Z,7.30
2023-04-18T23:11:05.774Z,6.43
2023-04-18T23:13:32.141Z,7.30
2023-04-18T23:15:58.684Z,6.77
2023-04-18T23:18:25.016Z,6.33
2023-04-18T23:20:51.295Z,7.43
2023-04-18T23:23:17.699Z,6.37
2023-04-18T23:25:44.114Z,6.67
2023-04-18T23:28:10.598Z,5.20
2023-04-18T23:30:37.154Z,6.80
2023-04-18T23:33:03.589Z,6.10
2023-04-18T23:35:29.959Z,6.80
2023-04-18T23:37:57.040Z,6.10
2023-04-18T23:40:23.508Z,5.43
2023-04-18T23:42:49.824Z,7.07
2023-04-18T23:45:16.492Z,7.17
2023-04-18T23:47:42.865Z,6.27
2023-04-18T23:50:09.691Z,6.30
2023-04-18T23:52:38.057Z,7.33
2023-04-18T23:55:04.700Z,5.87
2023-04-18T23:57:31.132Z,7.00
2023-04-18T23:59:57.440Z,5.67
